Time,TemperatureF,DewpointF,PressureIn,WindDirection,WindDirectionDegrees,WindSpeedMPH,WindSpeedGustMPH,Humidity,HourlyPrecipIn,Conditions,Clouds,dailyrainin,SolarRadiationWatts/m^2,SoftwareType,DateUTC
2013-02-15 00:01:00,57.0,49.0,-100.00,NNE,18,16.0,26.0,74,0.00,,,0.00,0.000000,,2013-02-15 10:01:00,
2013-02-15 00:32:00,57.0,49.0,-100.00,NNE,18,16.0,26.0,74,0.00,,,0.00,0.000000,,2013-02-15 10:32:00,
2013-02-15 00:42:00,57.0,49.0,-100.00,NNE,18,16.0,26.0,74,0.00,,,0.00,0.000000,,2013-02-15 10:42:00,
2013-02-15 00:52:00,57.0,49.0,-100.00,NNE,18,16.0,26.0,74,0.00,,,0.00,0.000000,,2013-02-15 10:52:00,
2013-02-15 01:01:00,56.0,49.0,-100.00,NNE,15,13.0,24.0,78,0.00,,,0.00,0.000000,,2013-02-15 11:01:00,
2013-02-15 01:32:00,56.0,49.0,-100.00,NNE,15,13.0,24.0,78,0.00,,,0.00,0.000000,,2013-02-15 11:32:00,
2013-02-15 01:42:00,56.0,49.0,-100.00,NNE,15,13.0,24.0,78,0.00,,,0.00,0.000000,,2013-02-15 11:42:00,
2013-02-15 01:52:00,56.0,49.0,-100.00,NNE,15,13.0,24.0,78,0.00,,,0.00,0.000000,,2013-02-15 11:52:00,
2013-02-15 03:01:00,56.0,48.0,-100.00,North,5,11.0,20.0,74,-99.99,,,0.00,0.000000,,2013-02-15 13:01:00,
2013-02-15 03:22:00,56.0,48.0,-100.00,North,5,11.0,20.0,74,-99.99,,,0.00,0.000000,,2013-02-15 13:22:00,
2013-02-15 03:32:00,56.0,48.0,-100.00,North,5,11.0,20.0,74,-99.99,,,0.00,0.000000,,2013-02-15 13:32:00,
2013-02-15 03:42:00,56.0,48.0,-100.00,North,5,11.0,20.0,74,-99.99,,,0.00,0.000000,,2013-02-15 13:42:00,
2013-02-15 03:52:00,56.0,48.0,-100.00,North,5,11.0,20.0,74,-99.99,,,0.00,0.000000,,2013-02-15 13:52:00,
2013-02-15 04:01:00,57.0,46.0,-100.00,North,1,10.0,15.0,67,0.00,,,0.00,0.000000,,2013-02-15 14:01:00,
2013-02-15 04:32:00,57.0,46.0,-100.00,North,1,10.0,15.0,67,0.00,,,0.00,0.000000,,2013-02-15 14:32:00,
2013-02-15 04:42:00,57.0,46.0,-100.00,North,1,10.0,15.0,67,0.00,,,0.00,0.000000,,2013-02-15 14:42:00,
2013-02-15 04:52:00,57.0,46.0,-100.00,North,1,10.0,15.0,67,0.00,,,0.00,0.000000,,2013-02-15 14:52:00,
2013-02-15 05:01:00,57.0,48.0,-100.00,North,353,13.0,16.0,72,0.00,,,0.00,0.000000,,2013-02-15 15:01:00,
2013-02-15 05:32:00,57.0,48.0,-100.00,North,353,13.0,16.0,72,0.00,,,0.00,0.000000,,2013-02-15 15:32:00,
2013-02-15 05:42:00,57.0,48.0,-100.00,North,353,13.0,16.0,72,0.00,,,0.00,0.000000,,2013-02-15 15:42:00,
2013-02-15 05:52:00,57.0,48.0,-100.00,North,353,13.0,16.0,72,0.00,,,0.00,0.000000,,2013-02-15 15:52:00,
2013-02-15 06:01:00,57.0,47.0,-100.00,NNE,12,10.0,17.0,70,0.00,,,0.00,0.000000,,2013-02-15 16:01:00,
2013-02-15 06:32:00,57.0,47.0,-100.00,NNE,12,10.0,17.0,70,0.00,,,0.00,0.000000,,2013-02-15 16:32:00,
2013-02-15 06:43:00,57.0,47.0,-100.00,NNE,12,10.0,17.0,70,0.00,,,0.00,0.000000,,2013-02-15 16:43:00,
2013-02-15 06:52:00,57.0,47.0,-100.00,NNE,12,10.0,17.0,70,0.00,,,0.00,0.000000,,2013-02-15 16:52:00,
2013-02-15 07:01:00,58.0,50.0,-100.00,NNE,22,15.0,21.0,74,0.00,,,0.00,2.000000,,2013-02-15 17:01:00,
2013-02-15 07:32:00,58.0,50.0,-100.00,NNE,22,15.0,21.0,74,0.00,,,0.00,2.000000,,2013-02-15 17:32:00,
2013-02-15 07:42:00,58.0,50.0,-100.00,NNE,22,15.0,21.0,74,0.00,,,0.00,2.000000,,2013-02-15 17:42:00,
2013-02-15 07:52:00,58.0,50.0,-100.00,NNE,22,15.0,21.0,74,0.00,,,0.00,2.000000,,2013-02-15 17:52:00,
2013-02-15 08:01:00,63.0,50.0,-100.00,NNE,19,17.0,24.0,62,0.00,,,0.00,112.000000,,2013-02-15 18:01:00,
2013-02-15 08:32:00,63.0,50.0,-100.00,NNE,19,17.0,24.0,62,0.00,,,0.00,112.000000,,2013-02-15 18:32:00,
2013-02-15 08:42:00,63.0,50.0,-100.00,NNE,19,17.0,24.0,62,0.00,,,0.00,112.000000,,2013-02-15 18:42:00,
2013-02-15 08:52:00,63.0,50.0,-100.00,NNE,19,17.0,24.0,62,0.00,,,0.00,112.000000,,2013-02-15 18:52:00,
2013-02-15 09:01:00,68.0,51.0,-100.00,NNE,16,20.0,27.0,55,0.00,,,0.00,341.000000,,2013-02-15 19:01:00,
2013-02-15 09:32:00,68.0,51.0,-100.00,NNE,16,20.0,27.0,55,0.00,,,0.00,341.000000,,2013-02-15 19:32:00,
2013-02-15 09:42:00,68.0,51.0,-100.00,NNE,16,20.0,27.0,55,0.00,,,0.00,341.000000,,2013-02-15 19:42:00,
2013-02-15 09:52:00,68.0,51.0,-100.00,NNE,16,20.0,27.0,55,0.00,,,0.00,341.000000,,2013-02-15 19:52:00,
2013-02-15 10:01:00,70.0,53.0,-100.00,NNE,18,20.0,29.0,54,0.00,,,0.00,564.000000,,2013-02-15 20:01:00,
2013-02-15 10:22:00,70.0,53.0,-100.00,NNE,18,20.0,29.0,54,0.00,,,0.00,564.000000,,2013-02-15 20:22:00,
2013-02-15 10:32:00,70.0,53.0,-100.00,NNE,18,20.0,29.0,54,0.00,,,0.00,564.000000,,2013-02-15 20:32:00,
2013-02-15 10:42:00,70.0,53.0,-100.00,NNE,18,20.0,29.0,54,0.00,,,0.00,564.000000,,2013-02-15 20:42:00,
2013-02-15 10:52:00,70.0,53.0,-100.00,NNE,18,20.0,29.0,54,0.00,,,0.00,564.000000,,2013-02-15 20:52:00,
2013-02-15 11:01:00,69.0,55.0,-100.00,NE,47,17.0,30.0,61,0.00,,,0.00,759.000000,,2013-02-15 21:01:00,
2013-02-15 11:32:00,69.0,55.0,-100.00,NE,47,17.0,30.0,61,0.00,,,0.00,759.000000,,2013-02-15 21:32:00,
2013-02-15 11:42:00,69.0,55.0,-100.00,NE,47,17.0,30.0,61,0.00,,,0.00,759.000000,,2013-02-15 21:42:00,
2013-02-15 11:52:00,69.0,55.0,-100.00,NE,47,17.0,30.0,61,0.00,,,0.00,759.000000,,2013-02-15 21:52:00,
2013-02-15 12:01:00,70.0,57.0,-100.00,ENE,71,14.0,26.0,64,0.00,,,0.00,702.000000,,2013-02-15 22:01:00,
2013-02-15 12:32:00,70.0,57.0,-100.00,ENE,71,14.0,26.0,64,0.00,,,0.00,702.000000,,2013-02-15 22:32:00,
2013-02-15 12:42:00,70.0,57.0,-100.00,ENE,71,14.0,26.0,64,0.00,,,0.00,702.000000,,2013-02-15 22:42:00,
2013-02-15 12:52:00,70.0,57.0,-100.00,ENE,71,14.0,26.0,64,0.00,,,0.00,702.000000,,2013-02-15 22:52:00,
2013-02-15 13:01:00,63.0,56.0,-100.00,ENE,58,16.0,27.0,77,0.00,,,0.00,322.000000,,2013-02-15 23:01:00,
2013-02-15 13:32:00,63.0,56.0,-100.00,ENE,58,16.0,27.0,77,0.00,,,0.00,322.000000,,2013-02-15 23:32:00,
2013-02-15 13:42:00,63.0,56.0,-100.00,ENE,58,16.0,27.0,77,0.00,,,0.00,322.000000,,2013-02-15 23:42:00,
2013-02-15 13:52:00,63.0,56.0,-100.00,ENE,58,16.0,27.0,77,0.00,,,0.00,322.000000,,2013-02-15 23:52:00,
2013-02-15 14:01:00,62.0,56.0,-100.00,NE,53,14.0,27.0,81,0.00,,,0.00,312.000000,,2013-02-16 00:01:00,
2013-02-15 14:22:00,62.0,56.0,-100.00,NE,53,14.0,27.0,81,0.00,,,0.00,312.000000,,2013-02-16 00:22:00,
2013-02-15 14:32:00,62.0,56.0,-100.00,NE,53,14.0,27.0,81,0.00,,,0.00,312.000000,,2013-02-16 00:32:00,
2013-02-15 14:42:00,62.0,56.0,-100.00,NE,53,14.0,27.0,81,0.00,,,0.00,312.000000,,2013-02-16 00:42:00,
2013-02-15 14:52:00,62.0,56.0,-100.00,NE,53,14.0,27.0,81,0.00,,,0.00,312.000000,,2013-02-16 00:52:00,
2013-02-15 15:01:00,63.0,56.0,-100.00,ENE,63,13.0,22.0,77,0.01,,,0.01,202.000000,,2013-02-16 01:01:00,
2013-02-15 15:32:00,63.0,56.0,-100.00,ENE,63,13.0,22.0,77,0.01,,,0.01,202.000000,,2013-02-16 01:32:00,
2013-02-15 15:42:00,63.0,56.0,-100.00,ENE,63,13.0,22.0,77,0.01,,,0.01,202.000000,,2013-02-16 01:42:00,
2013-02-15 15:52:00,63.0,56.0,-100.00,ENE,63,13.0,22.0,77,0.01,,,0.01,202.000000,,2013-02-16 01:52:00,
2013-02-15 16:01:00,63.0,55.0,-100.00,NE,38,8.0,21.0,74,0.00,,,0.01,120.000000,,2013-02-16 02:01:00,
2013-02-15 16:22:00,63.0,55.0,-100.00,NE,38,8.0,21.0,74,0.00,,,0.01,120.000000,,2013-02-16 02:22:00,
2013-02-15 16:32:00,63.0,55.0,-100.00,NE,38,8.0,21.0,74,0.00,,,0.01,120.000000,,2013-02-16 02:32:00,
2013-02-15 16:42:00,63.0,55.0,-100.00,NE,38,8.0,21.0,74,0.00,,,0.01,120.000000,,2013-02-16 02:42:00,
2013-02-15 16:52:00,63.0,55.0,-100.00,NE,38,8.0,21.0,74,0.00,,,0.01,120.000000,,2013-02-16 02:52:00,
2013-02-15 17:01:00,63.0,53.0,-100.00,NNE,13,12.0,16.0,71,0.00,,,0.01,156.000000,,2013-02-16 03:01:00,
2013-02-15 17:32:00,63.0,53.0,-100.00,NNE,13,12.0,16.0,71,0.00,,,0.01,156.000000,,2013-02-16 03:32:00,
2013-02-15 17:42:00,63.0,53.0,-100.00,NNE,13,12.0,16.0,71,0.00,,,0.01,156.000000,,2013-02-16 03:42:00,
2013-02-15 17:52:00,63.0,53.0,-100.00,NNE,13,12.0,16.0,71,0.00,,,0.01,156.000000,,2013-02-16 03:52:00,
2013-02-15 18:01:00,62.0,54.0,-100.00,North,6,9.0,20.0,75,0.00,,,0.01,69.000000,,2013-02-16 04:01:00,
2013-02-15 18:32:00,62.0,54.0,-100.00,North,6,9.0,20.0,75,0.00,,,0.01,69.000000,,2013-02-16 04:32:00,
2013-02-15 18:42:00,62.0,54.0,-100.00,North,6,9.0,20.0,75,0.00,,,0.01,69.000000,,2013-02-16 04:42:00,
2013-02-15 18:52:00,62.0,54.0,-100.00,North,6,9.0,20.0,75,0.00,,,0.01,69.000000,,2013-02-16 04:52:00,
2013-02-15 19:01:00,60.0,52.0,-100.00,North,6,9.0,18.0,76,0.00,,,0.01,5.000000,,2013-02-16 05:01:00,
2013-02-15 19:32:00,60.0,52.0,-100.00,North,6,9.0,18.0,76,0.00,,,0.01,5.000000,,2013-02-16 05:32:00,
2013-02-15 19:42:00,60.0,52.0,-100.00,North,6,9.0,18.0,76,0.00,,,0.01,5.000000,,2013-02-16 05:42:00,
2013-02-15 19:52:00,60.0,52.0,-100.00,North,6,9.0,18.0,76,0.00,,,0.01,5.000000,,2013-02-16 05:52:00,
2013-02-15 20:01:00,60.0,52.0,-100.00,North,1,10.0,17.0,76,0.00,,,0.01,0.000000,,2013-02-16 06:01:00,
2013-02-15 20:22:00,60.0,52.0,-100.00,North,1,10.0,17.0,76,0.00,,,0.01,0.000000,,2013-02-16 06:22:00,
2013-02-15 20:32:00,60.0,52.0,-100.00,North,1,10.0,17.0,76,0.00,,,0.01,0.000000,,2013-02-16 06:32:00,
2013-02-15 20:42:00,60.0,52.0,-100.00,North,1,10.0,17.0,76,0.00,,,0.01,0.000000,,2013-02-16 06:42:00,
2013-02-15 20:52:00,60.0,52.0,-100.00,North,1,10.0,17.0,76,0.00,,,0.01,0.000000,,2013-02-16 06:52:00,
2013-02-15 21:01:00,60.0,52.0,-100.00,North,6,11.0,19.0,75,0.00,,,0.01,0.000000,,2013-02-16 07:01:00,
2013-02-15 21:32:00,60.0,52.0,-100.00,North,6,11.0,19.0,75,0.00,,,0.01,0.000000,,2013-02-16 07:32:00,
2013-02-15 21:42:00,60.0,52.0,-100.00,North,6,11.0,19.0,75,0.00,,,0.01,0.000000,,2013-02-16 07:42:00,
2013-02-15 21:53:00,60.0,52.0,-100.00,North,6,11.0,19.0,75,0.00,,,0.01,0.000000,,2013-02-16 07:53:00,
2013-02-15 22:01:00,60.0,54.0,-100.00,NNE,23,10.0,16.0,80,0.00,,,0.01,0.000000,,2013-02-16 08:01:00,
2013-02-15 22:32:00,60.0,54.0,-100.00,NNE,23,10.0,16.0,80,0.00,,,0.01,0.000000,,2013-02-16 08:32:00,
2013-02-15 22:42:00,60.0,54.0,-100.00,NNE,23,10.0,16.0,80,0.00,,,0.01,0.000000,,2013-02-16 08:42:00,
2013-02-15 22:52:00,60.0,54.0,-100.00,NNE,23,10.0,16.0,80,0.00,,,0.01,0.000000,,2013-02-16 08:52:00,